Terminal Aerodrome Forecast
Issued by NWS Charleston, SC

Home | Current Version | Previous Version | Text Only | Print | Product List | Glossary On
Versions: 1 2 3 4 5 6 7 8 9 10 11 12 13 14 15 16 17 18 19 20 21 22 23 24 25
000
FTUS42 KCHS 181131
TAFSAV
TAF
KSAV 181131Z 1812/1912 VRB03KT 3SM BR BKN005 OVC012
     FM181400 VRB05KT P6SM BKN025 BKN090
     FM181600 16006KT P6SM VCSH BKN035
     FM190000 15004KT 6SM BR SCT008 OVC140
     FM190600 17003KT 5SM BR VCSH BKN005=

USA.gov is the U.S. government's official web portal to all federal, state and local government web resources and services.